Time;durP1;ratioP1;P1;durP2;ratioP2;P2;SDS_P1;SDS_P2;PMS_P1;PMS_P2;Temp;Humidity;BMP_temperature;BMP_pressure;BME280_temperature;BME280_humidity;BME280_pressure;Samples;Min_cycle;Max_cycle;Signal;HPM_P1;HPM_P2
2022/01/06 00:00:38;;;;;;;8.07;2.60;;;14.30;73.60;;;;;;4095554;28;20102;-70
2022/01/06 00:03:01;;;;;;;12.05;2.22;;;14.40;73.90;;;;;;4109851;28;20051;-70
2022/01/06 00:05:24;;;;;;;10.48;2.20;;;14.50;73.40;;;;;;4111484;28;20098;-69
2022/01/06 00:07:48;;;;;;;10.32;2.28;;;14.60;72.70;;;;;;4126247;28;20113;-69
2022/01/06 00:10:11;;;;;;;13.00;2.35;;;14.60;72.90;;;;;;4127098;28;20466;-70
2022/01/06 00:12:41;;;;;;;14.63;1.92;;;14.70;73.10;;;;;;4126403;28;20454;-71
2022/01/06 00:15:20;;;;;;;18.35;2.72;;;14.70;73.10;;;;;;4111168;28;20058;-70
2022/01/06 00:17:58;;;;;;;13.80;2.58;;;14.80;73.30;;;;;;4124704;28;20038;-70
2022/01/06 00:23:21;;;;;;;17.50;2.20;;;14.80;73.30;;;;;;4122190;28;20039;-70
2022/01/06 00:25:45;;;;;;;13.75;2.05;;;14.80;73.60;;;;;;4110398;28;20050;-69
2022/01/06 00:28:08;;;;;;;10.55;2.28;;;14.80;74.00;;;;;;4126045;28;20050;-70
2022/01/06 00:30:32;;;;;;;10.10;1.98;;;14.80;73.90;;;;;;4125386;28;20081;-69
2022/01/06 00:32:55;;;;;;;17.23;2.17;;;14.80;74.60;;;;;;4119199;28;20545;-69
2022/01/06 00:35:18;;;;;;;17.33;3.00;;;14.80;74.10;;;;;;4111246;28;20042;-70
2022/01/06 00:37:42;;;;;;;9.80;2.85;;;14.80;74.20;;;;;;4111862;28;20447;-70
2022/01/06 00:40:05;;;;;;;12.52;2.78;;;14.90;74.40;;;;;;4111234;28;20450;-70
2022/01/06 00:42:28;;;;;;;13.93;2.25;;;14.90;74.30;;;;;;4109266;28;20593;-69
2022/01/06 00:44:52;;;;;;;13.80;2.53;;;15.00;73.90;;;;;;4111163;28;20096;-69
2022/01/06 00:47:20;;;;;;;11.02;2.60;;;15.10;73.60;;;;;;4120600;28;20085;-70
2022/01/06 00:49:43;;;;;;;18.85;3.17;;;15.10;73.30;;;;;;4127153;28;20556;-70
2022/01/06 00:52:06;;;;;;;12.27;2.00;;;15.10;73.20;;;;;;4126255;28;20054;-70
2022/01/06 00:54:30;;;;;;;14.18;3.15;;;15.10;73.00;;;;;;4099835;28;20050;-70
2022/01/06 00:56:53;;;;;;;14.25;2.60;;;15.20;73.80;;;;;;4126349;28;20097;-70
2022/01/06 00:59:16;;;;;;;12.57;2.65;;;15.20;72.50;;;;;;4126601;28;20100;-70
2022/01/06 01:01:39;;;;;;;9.43;2.60;;;15.10;72.40;;;;;;4126663;28;20634;-70
2022/01/06 01:04:04;;;;;;;14.52;2.67;;;15.10;72.50;;;;;;4110531;28;20561;-70
2022/01/06 01:06:28;;;;;;;16.45;2.13;;;15.10;72.60;;;;;;4104328;28;20121;-71
2022/01/06 01:08:51;;;;;;;10.80;1.98;;;15.10;72.90;;;;;;4109237;28;20101;-70
2022/01/06 01:11:14;;;;;;;12.05;2.42;;;15.10;72.80;;;;;;4110425;28;20101;-71
2022/01/06 01:13:54;;;;;;;10.00;2.00;;;15.10;72.50;;;;;;4110068;28;20448;-71
2022/01/06 01:16:23;;;;;;;11.85;2.05;;;15.00;71.40;;;;;;4093731;28;20047;-71
2022/01/06 01:18:46;;;;;;;13.50;2.10;;;15.00;72.60;;;;;;4093466;28;20102;-71
2022/01/06 01:21:10;;;;;;;8.20;2.33;;;15.00;72.10;;;;;;4094113;28;20055;-71
2022/01/06 01:23:33;;;;;;;10.52;1.98;;;15.00;72.90;;;;;;4107624;28;20093;-71
2022/01/06 01:25:56;;;;;;;9.63;1.60;;;15.00;73.50;;;;;;4123312;28;20106;-71
2022/01/06 01:28:20;;;;;;;10.55;2.50;;;15.10;73.00;;;;;;4126178;28;20042;-71
2022/01/06 01:31:00;;;;;;;8.82;1.90;;;15.20;72.00;;;;;;4126530;28;20038;-71
2022/01/06 01:33:24;;;;;;;9.87;1.80;;;15.20;71.50;;;;;;4118355;28;20042;-71
2022/01/06 01:35:47;;;;;;;8.90;1.63;;;15.30;71.90;;;;;;4126133;28;20105;-71
2022/01/06 01:38:11;;;;;;;8.27;1.70;;;15.30;71.50;;;;;;4126180;28;20111;-71
2022/01/06 01:40:35;;;;;;;9.02;2.00;;;15.30;71.40;;;;;;4126458;28;20450;-71
2022/01/06 01:42:57;;;;;;;6.20;2.00;;;15.30;71.40;;;;;;4118806;28;20054;-71
2022/01/06 01:45:26;;;;;;;8.02;1.60;;;15.30;71.70;;;;;;4125945;28;20050;-71
2022/01/06 01:47:49;;;;;;;10.73;2.08;;;15.20;71.70;;;;;;4125694;28;20050;-71
2022/01/06 01:50:16;;;;;;;4.80;1.63;;;15.20;71.80;;;;;;4126149;28;20058;-71
2022/01/06 01:52:40;;;;;;;8.82;1.85;;;15.20;71.70;;;;;;4119358;28;20043;-71
2022/01/06 01:55:05;;;;;;;4.13;1.77;;;15.20;71.80;;;;;;4105845;28;20545;-69
2022/01/06 01:57:28;;;;;;;6.32;1.80;;;15.20;71.90;;;;;;4110182;28;20423;-68
2022/01/06 01:59:51;;;;;;;8.13;2.17;;;15.10;72.20;;;;;;4108579;28;20094;-69
2022/01/06 02:02:14;;;;;;;5.00;1.52;;;15.10;72.20;;;;;;4110103;28;20054;-68
2022/01/06 02:04:37;;;;;;;10.02;1.48;;;15.10;72.00;;;;;;4124708;28;20399;-69
2022/01/06 02:07:00;;;;;;;5.70;1.40;;;15.10;72.00;;;;;;4126044;28;20054;-69
2022/01/06 02:09:23;;;;;;;7.65;1.90;;;15.10;72.90;;;;;;4125299;28;20873;-69
2022/01/06 02:11:48;;;;;;;9.30;1.52;;;15.00;72.00;;;;;;4125651;28;20042;-68
2022/01/06 02:14:11;;;;;;;7.00;1.83;;;15.00;71.80;;;;;;4116815;28;20469;-69
2022/01/06 02:16:34;;;;;;;6.55;1.92;;;15.00;72.10;;;;;;4125970;28;20120;-69
2022/01/06 02:18:57;;;;;;;6.28;1.50;;;15.00;72.40;;;;;;4125967;28;20082;-68
2022/01/06 02:21:22;;;;;;;13.43;1.52;;;14.90;73.00;;;;;;4125398;28;20125;-69
2022/01/06 02:23:45;;;;;;;6.38;1.13;;;15.00;73.90;;;;;;4116719;28;20050;-68
2022/01/06 02:26:08;;;;;;;7.25;1.83;;;15.10;73.60;;;;;;4137982;28;20042;-69
2022/01/06 02:28:30;;;;;;;7.82;2.17;;;15.30;72.80;;;;;;4125351;28;20068;-69
2022/01/06 02:30:55;;;;;;;7.88;1.35;;;15.50;72.00;;;;;;4125558;28;20038;-69
2022/01/06 02:33:18;;;;;;;7.00;1.73;;;15.60;71.20;;;;;;4116286;28;20077;-69
2022/01/06 02:35:41;;;;;;;8.82;1.67;;;15.60;70.60;;;;;;4125338;28;20100;-69
2022/01/06 02:38:05;;;;;;;7.05;1.40;;;15.70;70.20;;;;;;4124206;28;20526;-69
2022/01/06 02:40:29;;;;;;;6.93;2.00;;;15.70;70.00;;;;;;4125424;28;20565;-69
2022/01/06 02:42:55;;;;;;;10.23;1.40;;;15.60;70.10;;;;;;4114010;28;20047;-68
2022/01/06 02:45:19;;;;;;;3.92;1.13;;;15.60;70.00;;;;;;4124734;28;20104;-68
2022/01/06 02:47:44;;;;;;;6.10;1.58;;;15.60;69.80;;;;;;4125144;28;20112;-69
2022/01/06 02:50:08;;;;;;;7.68;1.80;;;15.60;70.00;;;;;;4125305;28;20499;-69
2022/01/06 02:52:31;;;;;;;6.85;1.42;;;15.60;69.90;;;;;;4115577;28;20082;-68
2022/01/06 02:54:56;;;;;;;8.82;1.27;;;15.60;70.00;;;;;;4109480;28;20043;-68
2022/01/06 02:57:18;;;;;;;4.10;1.35;;;15.60;70.90;;;;;;4109324;28;20503;-68
2022/01/06 02:59:41;;;;;;;7.43;1.60;;;15.50;70.10;;;;;;4108999;28;20422;-69
2022/01/06 03:02:04;;;;;;;4.15;1.17;;;15.50;71.10;;;;;;4115067;28;20403;-68
2022/01/06 03:04:28;;;;;;;4.53;1.48;;;15.60;71.10;;;;;;4110969;28;20300;-68
2022/01/06 03:06:52;;;;;;;5.78;1.00;;;15.70;70.50;;;;;;4109291;28;20105;-68
2022/01/06 03:09:15;;;;;;;5.38;1.27;;;15.80;69.80;;;;;;4111838;28;20475;-69
2022/01/06 03:11:43;;;;;;;7.07;1.52;;;15.90;69.50;;;;;;4114688;28;20102;-69
2022/01/06 03:14:06;;;;;;;4.38;1.25;;;15.90;69.00;;;;;;4127948;28;20050;-69
2022/01/06 03:16:28;;;;;;;7.72;1.50;;;15.90;69.80;;;;;;4128172;28;20046;-68
2022/01/06 03:18:51;;;;;;;17.63;2.42;;;15.80;69.00;;;;;;4121197;28;20526;-69
2022/01/06 03:21:15;;;;;;;11.38;1.40;;;15.80;69.10;;;;;;4113117;28;20818;-68
2022/01/06 03:23:38;;;;;;;10.13;1.70;;;15.70;69.40;;;;;;4111099;28;20054;-68
2022/01/06 03:26:01;;;;;;;9.63;1.38;;;15.70;70.20;;;;;;4111718;28;20058;-68
2022/01/06 03:28:25;;;;;;;5.15;1.38;;;15.70;70.20;;;;;;4112604;28;20455;-69
2022/01/06 03:30:48;;;;;;;4.03;1.25;;;15.70;69.70;;;;;;4095640;28;20047;-69
2022/01/06 03:33:11;;;;;;;9.88;1.60;;;15.70;69.60;;;;;;4095504;28;20447;-69
2022/01/06 03:35:34;;;;;;;9.15;2.53;;;15.70;69.70;;;;;;4095710;28;20055;-69
2022/01/06 03:37:57;;;;;;;11.23;1.65;;;15.80;69.70;;;;;;4096062;28;20039;-71
2022/01/06 03:40:21;;;;;;;5.78;1.27;;;15.80;69.50;;;;;;4107311;28;20186;-69
2022/01/06 03:42:45;;;;;;;5.18;1.50;;;15.80;69.40;;;;;;4095423;28;20055;-69
2022/01/06 03:45:12;;;;;;;5.75;1.33;;;15.70;69.00;;;;;;4095800;28;20555;-69
2022/01/06 03:47:35;;;;;;;7.07;1.95;;;15.70;69.40;;;;;;4096038;28;20101;-69
2022/01/06 03:49:58;;;;;;;6.35;1.35;;;15.70;70.00;;;;;;4111352;28;20541;-69
2022/01/06 03:52:21;;;;;;;9.05;2.00;;;15.70;70.50;;;;;;4111683;28;20867;-70
2022/01/06 03:54:44;;;;;;;8.15;1.80;;;15.80;70.00;;;;;;4111421;28;20101;-69
2022/01/06 03:57:07;;;;;;;8.75;2.05;;;16.00;69.50;;;;;;4111539;28;20425;-69
2022/01/06 03:59:30;;;;;;;6.10;1.48;;;16.00;68.80;;;;;;4123498;28;20050;-69
2022/01/06 04:01:55;;;;;;;11.65;1.23;;;16.00;68.50;;;;;;4127711;28;20096;-69
2022/01/06 04:04:18;;;;;;;13.27;2.28;;;16.00;68.10;;;;;;4127678;28;20038;-70
2022/01/06 04:06:42;;;;;;;5.97;1.35;;;16.00;68.10;;;;;;4127594;28;20097;-70
2022/01/06 04:09:05;;;;;;;7.32;1.90;;;15.90;68.40;;;;;;4115259;28;20039;-69
2022/01/06 04:11:28;;;;;;;7.00;1.75;;;15.90;68.60;;;;;;4111581;28;20153;-70
2022/01/06 04:13:51;;;;;;;7.95;1.33;;;15.80;68.70;;;;;;4111419;28;20534;-70
2022/01/06 04:16:16;;;;;;;6.40;0.90;;;15.70;69.20;;;;;;4111228;28;20105;-70
2022/01/06 04:18:41;;;;;;;5.97;1.20;;;15.70;69.70;;;;;;4117171;28;20104;-70
2022/01/06 04:21:06;;;;;;;7.10;1.40;;;15.80;69.80;;;;;;4126185;28;20070;-70
2022/01/06 04:23:30;;;;;;;8.27;1.50;;;15.70;69.40;;;;;;4125712;28;20050;-70
2022/01/06 04:25:53;;;;;;;7.65;1.83;;;15.80;69.30;;;;;;4126955;28;20054;-69
2022/01/06 04:28:16;;;;;;;5.55;1.60;;;15.80;69.30;;;;;;4119702;28;20054;-70
2022/01/06 04:30:39;;;;;;;5.82;1.58;;;15.80;68.90;;;;;;4110936;28;20058;-70
2022/01/06 04:33:02;;;;;;;7.82;2.10;;;15.80;69.00;;;;;;4110996;28;20077;-70
2022/01/06 04:35:26;;;;;;;5.55;1.77;;;15.80;69.00;;;;;;4110754;28;20106;-70
2022/01/06 04:37:49;;;;;;;5.90;1.58;;;15.70;68.90;;;;;;4113282;28;20100;-70
2022/01/06 04:40:13;;;;;;;9.50;1.85;;;15.70;70.00;;;;;;4118411;28;20106;-70
2022/01/06 04:42:36;;;;;;;7.53;2.08;;;15.70;69.20;;;;;;4110488;28;20047;-69
2022/01/06 04:45:00;;;;;;;4.72;1.65;;;15.60;70.70;;;;;;4110353;28;20054;-69
2022/01/06 04:47:23;;;;;;;8.43;1.92;;;15.60;70.10;;;;;;4110360;28;20051;-70
2022/01/06 04:49:46;;;;;;;11.32;2.00;;;15.70;70.00;;;;;;4110698;28;20042;-70
2022/01/06 04:52:11;;;;;;;7.63;2.13;;;15.80;69.50;;;;;;4110890;28;20059;-70
2022/01/06 04:54:34;;;;;;;10.73;2.75;;;15.80;69.30;;;;;;4110720;28;20050;-70
2022/01/06 04:56:57;;;;;;;10.73;3.42;;;15.90;69.10;;;;;;4110258;28;20442;-69
2022/01/06 04:59:20;;;;;;;7.53;2.00;;;15.90;68.70;;;;;;4094894;28;20066;-69
2022/01/06 05:01:44;;;;;;;13.77;2.20;;;15.90;68.50;;;;;;4094352;28;20051;-69
2022/01/06 05:04:07;;;;;;;10.70;2.20;;;15.90;68.40;;;;;;4094544;28;20051;-69
2022/01/06 05:06:30;;;;;;;11.98;2.20;;;15.90;68.60;;;;;;4106629;28;20436;-70
2022/01/06 05:08:55;;;;;;;13.18;3.10;;;15.80;68.80;;;;;;4110544;28;20082;-69
2022/01/06 05:11:18;;;;;;;14.13;2.67;;;15.80;69.00;;;;;;4110417;28;20454;-68
2022/01/06 05:13:40;;;;;;;12.07;2.28;;;15.80;69.10;;;;;;4110220;28;20050;-69
2022/01/06 05:16:04;;;;;;;9.25;2.15;;;15.70;69.10;;;;;;4110000;28;20098;-69
2022/01/06 05:18:27;;;;;;;8.95;2.00;;;15.70;69.40;;;;;;4112818;28;20068;-69
2022/01/06 05:20:51;;;;;;;14.73;2.97;;;15.70;69.60;;;;;;4110138;28;20051;-69
2022/01/06 05:23:14;;;;;;;10.05;2.08;;;15.70;69.50;;;;;;4109971;28;20054;-69
2022/01/06 05:25:38;;;;;;;9.68;2.35;;;15.80;69.30;;;;;;4109960;28;20129;-69
2022/01/06 05:28:01;;;;;;;9.32;2.05;;;15.80;69.00;;;;;;4115450;28;20442;-69
2022/01/06 05:30:25;;;;;;;9.68;2.42;;;15.80;68.90;;;;;;4121717;28;20101;-70
2022/01/06 05:32:48;;;;;;;14.23;2.53;;;15.90;68.90;;;;;;4109770;28;20554;-70
2022/01/06 05:35:11;;;;;;;10.95;2.35;;;16.00;68.70;;;;;;4110067;28;20155;-69
2022/01/06 05:37:34;;;;;;;12.50;2.50;;;16.00;68.10;;;;;;4115135;28;20050;-69
2022/01/06 05:39:57;;;;;;;8.55;2.17;;;16.10;67.80;;;;;;4109919;28;20789;-70
2022/01/06 05:42:22;;;;;;;9.60;2.13;;;16.10;67.90;;;;;;4108017;28;20101;-69
2022/01/06 05:44:46;;;;;;;8.75;2.10;;;16.10;67.60;;;;;;4109812;28;20109;-69
2022/01/06 05:47:09;;;;;;;17.67;3.08;;;16.10;67.60;;;;;;4115201;28;20054;-69
2022/01/06 05:49:33;;;;;;;14.07;2.50;;;16.00;67.60;;;;;;4125551;28;20161;-69
2022/01/06 05:51:56;;;;;;;15.43;2.72;;;16.00;67.70;;;;;;4125691;28;20074;-70
2022/01/06 05:54:19;;;;;;;14.52;2.28;;;15.90;67.80;;;;;;4125885;28;20349;-70
2022/01/06 05:56:42;;;;;;;9.30;2.13;;;15.90;68.30;;;;;;4118304;28;20046;-70
2022/01/06 05:59:06;;;;;;;12.45;2.60;;;15.80;68.50;;;;;;4125729;28;20042;-69
2022/01/06 06:01:29;;;;;;;8.50;2.20;;;15.90;68.90;;;;;;4125592;28;20085;-69
2022/01/06 06:03:54;;;;;;;13.32;2.47;;;15.90;68.70;;;;;;4125306;28;20046;-70
2022/01/06 06:06:17;;;;;;;10.23;2.65;;;16.00;68.30;;;;;;4112912;28;20050;-70
2022/01/06 06:08:40;;;;;;;10.55;2.22;;;16.00;68.10;;;;;;4109310;28;20042;-69
2022/01/06 06:11:03;;;;;;;7.13;2.03;;;16.00;67.80;;;;;;4109307;28;20050;-69
2022/01/06 06:13:27;;;;;;;12.00;2.47;;;16.00;67.50;;;;;;4109497;28;20088;-69
2022/01/06 06:15:51;;;;;;;25.05;3.03;;;16.00;67.60;;;;;;4111944;28;20074;-69
2022/01/06 06:18:16;;;;;;;10.13;2.22;;;15.90;67.90;;;;;;4109813;28;20050;-69
2022/01/06 06:20:39;;;;;;;14.85;2.83;;;15.90;68.40;;;;;;4109778;28;20062;-69
2022/01/06 06:23:03;;;;;;;7.32;1.73;;;15.90;68.60;;;;;;4109663;28;20055;-70
2022/01/06 06:25:26;;;;;;;13.55;3.17;;;16.00;68.10;;;;;;4113785;28;20057;-70
2022/01/06 06:27:49;;;;;;;9.73;1.88;;;16.10;67.60;;;;;;4093310;28;20047;-69
2022/01/06 06:30:13;;;;;;;11.55;2.60;;;16.10;67.30;;;;;;4118022;28;20693;-70
2022/01/06 06:32:37;;;;;;;11.40;2.10;;;16.10;67.10;;;;;;4125497;28;20058;-70
2022/01/06 06:35:01;;;;;;;13.88;2.13;;;16.10;66.90;;;;;;4120569;28;20174;-70
2022/01/06 06:37:24;;;;;;;17.23;2.75;;;16.00;66.90;;;;;;4093252;28;20536;-70
2022/01/06 06:39:47;;;;;;;5.50;2.33;;;16.00;67.40;;;;;;4093449;28;20051;-70
2022/01/06 06:42:11;;;;;;;14.43;3.00;;;15.90;67.70;;;;;;4095458;28;20058;-70
2022/01/06 06:44:34;;;;;;;9.20;2.40;;;15.90;68.30;;;;;;4096886;28;20416;-69
2022/01/06 06:46:57;;;;;;;10.48;2.08;;;15.90;68.40;;;;;;4109639;28;20097;-69
2022/01/06 06:49:22;;;;;;;8.63;2.20;;;15.90;68.30;;;;;;4112313;28;20078;-69
2022/01/06 06:51:45;;;;;;;10.98;2.28;;;15.90;68.30;;;;;;4111195;28;20499;-69
2022/01/06 06:54:08;;;;;;;12.82;2.65;;;15.90;68.30;;;;;;4111124;28;20054;-70
2022/01/06 06:56:30;;;;;;;9.35;2.42;;;16.00;67.90;;;;;;4106022;28;20447;-69
2022/01/06 06:58:53;;;;;;;10.05;2.53;;;15.90;67.70;;;;;;4111162;28;20113;-69
2022/01/06 07:01:17;;;;;;;11.60;3.03;;;15.90;67.70;;;;;;4111056;28;20050;-70
2022/01/06 07:03:40;;;;;;;12.98;2.60;;;15.90;68.00;;;;;;4111074;28;20050;-70
2022/01/06 07:06:05;;;;;;;9.85;2.85;;;15.90;68.00;;;;;;4118943;28;20795;-68
2022/01/06 07:08:28;;;;;;;10.70;2.53;;;15.80;67.60;;;;;;4111767;28;20047;-68
2022/01/06 07:10:51;;;;;;;11.68;2.80;;;15.80;67.90;;;;;;4111875;28;20050;-68
2022/01/06 07:13:16;;;;;;;10.90;2.97;;;15.70;68.30;;;;;;4111799;28;20059;-68
2022/01/06 07:15:41;;;;;;;13.00;2.92;;;15.70;68.70;;;;;;4124740;28;20050;-69
2022/01/06 07:18:04;;;;;;;14.85;2.50;;;15.70;69.40;;;;;;4116842;28;20046;-71
2022/01/06 07:20:27;;;;;;;15.82;3.75;;;15.90;69.20;;;;;;4111840;28;20047;-69
2022/01/06 07:22:52;;;;;;;15.57;3.20;;;16.00;68.60;;;;;;4111549;28;20549;-69
2022/01/06 07:25:16;;;;;;;12.13;2.83;;;16.20;69.00;;;;;;4105932;28;20097;-69
2022/01/06 07:27:38;;;;;;;10.10;2.80;;;16.20;67.50;;;;;;4107330;28;20054;-69
2022/01/06 07:30:02;;;;;;;13.10;2.58;;;16.30;68.30;;;;;;4111808;28;20054;-69
2022/01/06 07:32:25;;;;;;;13.60;2.30;;;16.20;67.30;;;;;;4111484;28;20109;-68
2022/01/06 07:34:51;;;;;;;10.20;2.55;;;16.20;67.50;;;;;;4115416;28;20121;-69
2022/01/06 07:37:14;;;;;;;8.63;2.95;;;16.20;67.50;;;;;;4111626;28;20105;-69
2022/01/06 07:39:39;;;;;;;9.95;2.63;;;16.10;67.60;;;;;;4111203;28;20196;-69
2022/01/06 07:42:01;;;;;;;11.18;2.70;;;16.10;68.10;;;;;;4111724;28;20042;-69
2022/01/06 07:44:25;;;;;;;9.98;2.55;;;16.10;68.00;;;;;;4095848;28;20055;-69
2022/01/06 07:46:48;;;;;;;17.15;3.10;;;16.10;67.90;;;;;;4097022;28;20107;-69
2022/01/06 07:49:11;;;;;;;14.77;2.25;;;16.20;67.70;;;;;;4111337;28;20062;-69
2022/01/06 07:51:35;;;;;;;15.50;3.30;;;16.10;67.70;;;;;;4111151;28;20113;-70
2022/01/06 07:53:59;;;;;;;20.40;2.75;;;16.10;67.60;;;;;;4109652;28;20047;-69
2022/01/06 07:56:23;;;;;;;14.82;3.20;;;16.10;67.70;;;;;;4111414;28;20058;-70
2022/01/06 07:58:47;;;;;;;18.27;3.47;;;16.20;67.60;;;;;;4110831;28;20054;-69
2022/01/06 08:01:11;;;;;;;9.75;2.53;;;16.20;67.30;;;;;;4121518;28;20403;-69
2022/01/06 08:03:34;;;;;;;10.82;2.75;;;16.20;67.10;;;;;;4095754;28;20098;-69
2022/01/06 08:05:58;;;;;;;16.38;2.97;;;16.20;67.30;;;;;;4108580;28;20101;-69
2022/01/06 08:08:21;;;;;;;11.80;2.83;;;16.20;67.50;;;;;;4121440;28;20046;-70
2022/01/06 08:10:44;;;;;;;16.17;3.78;;;16.30;67.40;;;;;;4124636;28;20042;-69
2022/01/06 08:13:08;;;;;;;11.95;2.45;;;16.30;67.10;;;;;;4124715;28;20058;-70
2022/01/06 08:15:32;;;;;;;11.55;2.20;;;16.30;66.80;;;;;;4109388;28;20050;-70
2022/01/06 08:17:55;;;;;;;10.43;2.50;;;16.30;67.10;;;;;;4109277;28;20109;-70
2022/01/06 08:20:18;;;;;;;14.93;2.85;;;16.30;67.10;;;;;;4108331;28;20097;-69
2022/01/06 08:22:41;;;;;;;14.35;3.00;;;16.20;67.00;;;;;;4109407;28;20051;-70
2022/01/06 08:25:06;;;;;;;9.25;2.70;;;16.30;67.00;;;;;;4107780;28;20349;-70
2022/01/06 08:27:29;;;;;;;13.30;2.80;;;16.20;67.00;;;;;;4107945;28;20132;-70
2022/01/06 08:29:54;;;;;;;12.82;2.95;;;16.20;67.20;;;;;;4109275;28;20775;-71
2022/01/06 08:32:17;;;;;;;16.42;3.42;;;16.20;67.30;;;;;;4107302;28;20055;-70
2022/01/06 08:34:40;;;;;;;13.05;3.05;;;16.10;67.40;;;;;;4113414;28;20039;-70
2022/01/06 08:37:04;;;;;;;14.57;3.53;;;16.10;67.70;;;;;;4110920;28;20050;-70
2022/01/06 08:39:28;;;;;;;18.30;2.97;;;16.10;67.50;;;;;;4118253;28;20050;-70
2022/01/06 08:41:52;;;;;;;14.65;3.45;;;16.10;67.80;;;;;;4117164;28;20046;-69
2022/01/06 08:44:16;;;;;;;15.52;3.08;;;16.00;68.10;;;;;;4110235;28;20183;-69
2022/01/06 08:46:41;;;;;;;16.98;3.75;;;16.00;67.90;;;;;;4108638;28;20043;-69
2022/01/06 08:49:06;;;;;;;14.13;2.95;;;16.00;68.00;;;;;;4107522;28;20455;-68
2022/01/06 08:51:29;;;;;;;8.68;3.15;;;16.00;68.10;;;;;;4109083;28;20054;-70
2022/01/06 08:53:52;;;;;;;15.30;2.90;;;16.00;68.30;;;;;;4108750;28;20054;-69
2022/01/06 08:56:15;;;;;;;15.27;3.00;;;16.00;68.40;;;;;;4100965;28;20056;-69
2022/01/06 08:58:38;;;;;;;15.38;4.20;;;15.90;68.90;;;;;;4130500;28;20090;-68
2022/01/06 09:01:01;;;;;;;18.27;2.95;;;16.00;68.80;;;;;;4116142;28;20561;-70
2022/01/06 09:03:26;;;;;;;14.07;3.17;;;16.10;68.40;;;;;;4108687;28;20050;-70
2022/01/06 09:05:49;;;;;;;15.15;3.30;;;16.20;67.80;;;;;;4106947;28;20050;-69
2022/01/06 09:08:12;;;;;;;14.90;3.53;;;16.30;67.20;;;;;;4108260;28;20438;-69
2022/01/06 09:10:36;;;;;;;20.10;3.13;;;16.30;66.80;;;;;;4108470;28;20101;-70
2022/01/06 09:13:18;;;;;;;10.93;2.30;;;16.30;66.90;;;;;;4114978;28;20097;-69
2022/01/06 09:15:42;;;;;;;9.82;2.25;;;16.30;67.00;;;;;;4119759;28;20074;-69
2022/01/06 09:18:07;;;;;;;7.80;2.55;;;16.20;67.10;;;;;;4108297;28;20551;-68
2022/01/06 09:20:32;;;;;;;10.63;2.83;;;16.20;67.50;;;;;;4108254;28;20054;-68
2022/01/06 09:22:55;;;;;;;11.90;2.13;;;16.10;67.70;;;;;;4115179;28;20105;-70
2022/01/06 09:25:18;;;;;;;8.48;1.88;;;16.10;68.00;;;;;;4108655;28;20495;-69
2022/01/06 09:27:43;;;;;;;10.70;2.63;;;16.00;68.20;;;;;;4123589;28;20050;-68
2022/01/06 09:30:07;;;;;;;7.22;1.83;;;16.10;68.30;;;;;;4117840;28;20110;-68
2022/01/06 09:32:30;;;;;;;11.68;2.45;;;16.00;68.10;;;;;;4112246;28;20059;-68
2022/01/06 09:34:53;;;;;;;11.48;2.20;;;16.00;68.30;;;;;;4108145;28;20050;-69
2022/01/06 09:37:19;;;;;;;8.73;2.55;;;16.00;68.40;;;;;;4107788;28;20055;-68
2022/01/06 09:39:42;;;;;;;12.23;2.65;;;16.00;68.50;;;;;;4107635;28;20046;-68
2022/01/06 09:42:05;;;;;;;16.58;3.00;;;15.90;68.60;;;;;;4111998;28;20055;-69
2022/01/06 09:44:31;;;;;;;11.20;2.55;;;15.90;68.90;;;;;;4107697;28;20082;-69
2022/01/06 09:46:55;;;;;;;14.63;2.30;;;15.90;69.20;;;;;;4115926;28;20047;-69
2022/01/06 09:49:19;;;;;;;6.18;1.63;;;15.80;69.00;;;;;;4108066;28;20054;-68
2022/01/06 09:51:42;;;;;;;10.25;2.20;;;15.80;69.40;;;;;;4107816;28;20051;-68
2022/01/06 09:54:07;;;;;;;8.73;2.67;;;15.80;70.10;;;;;;4107698;28;20889;-67
2022/01/06 09:56:31;;;;;;;11.25;2.30;;;15.90;70.00;;;;;;4107125;28;20518;-67
2022/01/06 09:58:54;;;;;;;21.35;3.95;;;16.00;69.90;;;;;;4107475;28;20050;-67
2022/01/06 10:01:17;;;;;;;13.13;3.08;;;16.10;69.90;;;;;;4107555;28;20087;-67
2022/01/06 10:03:44;;;;;;;9.90;3.72;;;16.20;69.90;;;;;;4106578;28;20062;-68
2022/01/06 10:06:11;;;;;;;20.95;4.10;;;16.10;69.70;;;;;;4107928;28;20089;-67
2022/01/06 10:08:35;;;;;;;15.00;3.13;;;16.10;69.60;;;;;;4106988;28;20058;-67
2022/01/06 10:11:11;;;;;;;17.55;3.85;;;16.10;70.10;;;;;;4107336;28;20487;-67
2022/01/06 10:13:35;;;;;;;17.77;3.38;;;16.00;70.00;;;;;;4106706;28;20046;-67
2022/01/06 10:15:57;;;;;;;13.40;3.40;;;16.00;71.10;;;;;;4113246;28;20676;-67
2022/01/06 10:18:20;;;;;;;15.60;4.20;;;16.00;71.40;;;;;;4107105;28;20124;-68
2022/01/06 10:20:45;;;;;;;16.65;3.75;;;16.10;71.30;;;;;;4106876;28;20047;-68
2022/01/06 10:23:13;;;;;;;13.45;3.47;;;16.10;71.10;;;;;;4120354;28;20135;-67
2022/01/06 10:25:39;;;;;;;16.92;3.88;;;16.20;71.00;;;;;;4111846;28;20042;-68
2022/01/06 10:28:18;;;;;;;14.13;3.35;;;16.20;71.00;;;;;;4115171;28;20050;-69
2022/01/06 10:30:47;;;;;;;12.98;3.00;;;16.10;71.40;;;;;;4112561;28;20042;-68
2022/01/06 10:33:10;;;;;;;18.20;3.72;;;16.20;71.50;;;;;;4121913;28;20050;-68
2022/01/06 10:35:34;;;;;;;21.23;4.05;;;16.20;71.30;;;;;;4118824;28;20054;-68
2022/01/06 10:38:00;;;;;;;18.50;3.08;;;16.30;71.20;;;;;;4106785;28;20051;-68
2022/01/06 10:40:25;;;;;;;16.38;2.80;;;16.40;70.40;;;;;;4107509;28;20085;-69
2022/01/06 10:42:50;;;;;;;17.65;3.42;;;16.50;70.10;;;;;;4115323;28;20042;-68
2022/01/06 10:45:19;;;;;;;17.90;3.55;;;16.60;69.80;;;;;;4117868;28;20458;-68
2022/01/06 10:47:44;;;;;;;23.77;3.42;;;16.60;69.80;;;;;;4105997;28;20542;-67
2022/01/06 10:50:14;;;;;;;21.48;3.30;;;16.50;69.70;;;;;;4107725;28;20062;-67
2022/01/06 10:52:39;;;;;;;14.95;2.63;;;16.50;70.10;;;;;;4106947;28;20559;-67
2022/01/06 10:55:13;;;;;;;16.90;3.70;;;16.40;70.70;;;;;;4107416;28;20051;-67
2022/01/06 10:57:36;;;;;;;19.88;4.00;;;16.40;70.70;;;;;;4106769;28;20050;-67
2022/01/06 10:59:59;;;;;;;22.65;4.60;;;16.40;70.50;;;;;;4107816;28;20388;-68
2022/01/06 11:02:26;;;;;;;17.38;3.17;;;16.40;70.30;;;;;;4121514;28;20054;-67
2022/01/06 11:04:50;;;;;;;20.23;3.70;;;16.50;70.30;;;;;;4106606;28;20113;-67
2022/01/06 11:07:13;;;;;;;14.63;3.30;;;16.50;70.20;;;;;;4105033;28;20113;-67
2022/01/06 11:09:38;;;;;;;19.73;3.60;;;16.50;70.00;;;;;;4109176;28;20050;-68
2022/01/06 11:14:44;;;;;;;20.02;3.90;;;16.50;69.70;;;;;;4134425;28;20103;-69
2022/01/06 11:17:07;;;;;;;17.27;3.85;;;16.40;69.40;;;;;;4119167;28;20100;-69
2022/01/06 11:19:32;;;;;;;18.65;4.95;;;16.50;69.30;;;;;;4106866;28;20067;-70
2022/01/06 11:22:00;;;;;;;12.45;3.63;;;16.50;68.80;;;;;;4108332;28;20050;-69
2022/01/06 11:24:27;;;;;;;20.30;3.75;;;16.60;68.40;;;;;;4106821;28;20117;-68
2022/01/06 11:26:59;;;;;;;10.45;2.63;;;16.60;68.10;;;;;;4107155;28;20050;-68
2022/01/06 11:29:27;;;;;;;12.25;2.88;;;16.60;67.70;;;;;;4123510;28;20050;-67
2022/01/06 11:31:51;;;;;;;16.67;3.50;;;16.60;67.30;;;;;;4124275;28;20597;-66
2022/01/06 11:34:16;;;;;;;11.68;3.13;;;16.60;67.30;;;;;;4119784;28;20058;-68
2022/01/06 11:36:42;;;;;;;13.18;3.20;;;16.50;67.20;;;;;;4109646;28;20207;-67
2022/01/06 11:39:08;;;;;;;16.88;3.40;;;16.50;67.30;;;;;;4120173;28;20450;-68
2022/01/06 11:41:34;;;;;;;15.50;3.40;;;16.40;67.30;;;;;;4121830;28;20121;-67
2022/01/06 11:43:58;;;;;;;19.33;2.80;;;16.30;67.30;;;;;;4109769;28;20046;-67
2022/01/06 11:46:21;;;;;;;11.43;3.00;;;16.20;67.70;;;;;;4112351;28;20105;-67
2022/01/06 11:48:49;;;;;;;13.68;2.63;;;16.10;68.00;;;;;;4115205;28;20180;-67
2022/01/06 11:51:23;;;;;;;16.30;3.25;;;16.00;68.40;;;;;;4109886;28;20194;-66
2022/01/06 11:53:47;;;;;;;14.63;3.00;;;16.00;68.70;;;;;;4108866;28;20043;-67
2022/01/06 11:56:14;;;;;;;10.38;3.03;;;15.90;69.40;;;;;;4119669;28;20049;-67
2022/01/06 11:58:36;;;;;;;15.05;2.92;;;15.90;69.50;;;;;;4111748;28;20051;-67
2022/01/06 12:01:05;;;;;;;15.50;3.08;;;15.90;69.80;;;;;;4119256;28;20058;-67
2022/01/06 12:03:36;;;;;;;14.93;3.22;;;15.80;69.70;;;;;;4116296;28;20575;-67
2022/01/06 12:05:58;;;;;;;13.40;2.70;;;15.80;69.80;;;;;;4117317;28;21015;-65
2022/01/06 12:08:33;;;;;;;15.20;3.50;;;15.70;70.00;;;;;;4108752;28;20462;-66
2022/01/06 12:10:58;;;;;;;17.02;3.05;;;15.70;70.00;;;;;;4108409;28;20051;-66
2022/01/06 12:13:21;;;;;;;12.95;2.60;;;15.60;70.00;;;;;;4108830;28;20042;-66
2022/01/06 12:15:49;;;;;;;19.08;2.78;;;15.60;70.30;;;;;;4112410;28;20054;-66
2022/01/06 12:18:17;;;;;;;16.27;3.15;;;15.50;70.20;;;;;;4109269;28;20105;-67
2022/01/06 12:20:41;;;;;;;14.85;3.55;;;15.50;70.60;;;;;;4109060;28;20200;-67
2022/01/06 12:23:06;;;;;;;12.65;3.30;;;15.50;70.80;;;;;;4109027;28;20407;-67
2022/01/06 12:25:29;;;;;;;14.52;3.05;;;15.40;70.60;;;;;;4108184;28;20105;-65
2022/01/06 12:27:55;;;;;;;18.85;3.72;;;15.40;70.50;;;;;;4120962;28;20054;-65
2022/01/06 12:30:18;;;;;;;16.35;3.42;;;15.40;70.60;;;;;;4108260;28;20081;-65